Time;durP1;ratioP1;P1;durP2;ratioP2;P2;SDS_P1;SDS_P2;PMS_P1;PMS_P2;Temp;Humidity;BMP_temperature;BMP_pressure;BME280_temperature;BME280_humidity;BME280_pressure;Samples;Min_cycle;Max_cycle;Signal;HPM_P1;HPM_P2
2021/11/01 00:00:23;;;;;;;;;;;;;;;12.87;85.25;97332.50;4939353;28;102845;-64
2021/11/01 00:02:51;;;;;;;;;;;;;;;12.93;85.19;97328.41;4943208;28;102698;-64
2021/11/01 00:05:21;;;;;;;;;;;;;;;12.91;85.59;97325.91;4956298;28;104278;-64
2021/11/01 00:07:48;;;;;;;;;;;;;;;12.84;85.57;97319.56;4941387;28;103115;-64
2021/11/01 00:10:16;;;;;;;;;;;;;;;12.91;85.71;97315.31;4942103;28;102618;-63
2021/11/01 00:12:45;;;;;;;;;;;;;;;12.99;85.21;97323.31;4940728;28;102633;-64
2021/11/01 00:15:14;;;;;;;;;;;;;;;13.06;85.06;97319.00;4940948;28;104071;-64
2021/11/01 00:17:42;;;;;;;;;;;;;;;12.99;85.78;97312.69;4941962;28;103042;-64
2021/11/01 00:20:11;;;;;;;;;;;;;;;13.01;85.08;97315.19;4941521;28;102689;-64
2021/11/01 00:22:39;;;;;;;;;;;;;;;13.13;84.81;97309.47;4941790;28;103901;-64
2021/11/01 00:25:10;;;;;;;;;;;;;;;13.22;84.10;97313.78;4941595;28;103225;-64
2021/11/01 00:27:37;;;;;;;;;;;;;;;13.24;84.87;97321.59;4957162;28;103991;-64
2021/11/01 00:30:08;;;;;;;;;;;;;;;13.27;84.61;97327.44;4943123;28;102602;-64
2021/11/01 00:32:36;;;;;;;;;;;;;;;13.26;84.76;97315.16;4942522;28;102947;-63
2021/11/01 00:35:05;;;;;;;;;;;;;;;13.21;85.22;97313.97;4942149;28;103267;-64
2021/11/01 00:37:33;;;;;;;;;;;;;;;13.26;84.77;97309.84;4942698;28;103157;-64
2021/11/01 00:40:03;;;;;;;;;;;;;;;13.26;84.86;97309.00;4943142;28;102574;-64
2021/11/01 00:42:32;;;;;;;;;;;;;;;13.44;84.29;97308.91;4943068;28;102688;-64
2021/11/01 00:45:00;;;;;;;;;;;;;;;13.43;84.42;97309.88;4939637;28;103328;-63
2021/11/01 00:47:29;;;;;;;;;;;;;;;13.53;84.22;97306.09;4942132;28;103269;-63
2021/11/01 00:49:57;;;;;;;;;;;;;;;13.65;84.68;97304.78;4940518;28;102645;-63
2021/11/01 00:52:26;;;;;;;;;;;;;;;13.89;85.17;97296.06;4942699;28;102754;-64
2021/11/01 00:54:59;;;;;;;;;;;;;;;14.13;86.20;97289.91;4956275;28;103247;-63
2021/11/01 00:57:27;;;;;;;;;;;;;;;14.21;86.13;97293.38;4943011;28;102951;-63
2021/11/01 00:59:56;;;;;;;;;;;;;;;14.16;86.20;97282.44;4941896;28;102676;-63
2021/11/01 01:02:24;;;;;;;;;;;;;;;14.16;87.06;97282.44;4939409;28;102626;-63
2021/11/01 01:04:54;;;;;;;;;;;;;;;14.18;89.27;97272.47;4940517;28;103368;-63
2021/11/01 01:07:22;;;;;;;;;;;;;;;14.46;89.20;97268.47;4941823;28;103159;-64
2021/11/01 01:09:52;;;;;;;;;;;;;;;14.90;87.83;97265.38;4940842;28;102723;-63
2021/11/01 01:12:20;;;;;;;;;;;;;;;15.09;87.20;97264.94;4940496;28;102675;-63
2021/11/01 01:14:53;;;;;;;;;;;;;;;15.16;86.71;97273.09;4939457;28;103620;-63
2021/11/01 01:17:21;;;;;;;;;;;;;;;15.18;87.20;97266.59;4941627;28;103365;-63
2021/11/01 01:19:55;;;;;;;;;;;;;;;15.36;86.66;97267.13;4941340;28;102793;-62
2021/11/01 01:22:31;;;;;;;;;;;;;;;15.41;86.51;97270.09;4942405;28;102807;-62
2021/11/01 01:25:10;;;;;;;;;;;;;;;15.46;86.61;97273.13;4941534;28;103290;-62
2021/11/01 01:27:39;;;;;;;;;;;;;;;15.59;86.07;97268.03;4972605;28;103141;-62
2021/11/01 01:30:08;;;;;;;;;;;;;;;15.60;86.00;97277.69;4942533;28;102674;-64
2021/11/01 01:32:36;;;;;;;;;;;;;;;15.61;86.14;97292.63;4942365;28;103001;-61
2021/11/01 01:35:04;;;;;;;;;;;;;;;15.64;86.02;97297.59;4941270;28;103977;-62
2021/11/01 01:37:33;;;;;;;;;;;;;;;15.54;85.76;97301.50;4939972;28;103151;-62
2021/11/01 01:40:02;;;;;;;;;;;;;;;15.45;84.83;97308.66;4955643;28;102695;-62
2021/11/01 01:42:32;;;;;;;;;;;;;;;15.23;84.12;97308.59;4941468;28;103842;-62
2021/11/01 01:45:00;;;;;;;;;;;;;;;15.00;85.34;97332.47;4940550;28;103256;-62
2021/11/01 01:47:28;;;;;;;;;;;;;;;14.74;86.54;97350.47;4940534;28;103181;-62
2021/11/01 01:49:56;;;;;;;;;;;;;;;14.57;87.17;97344.34;4940026;28;102800;-63
2021/11/01 01:52:24;;;;;;;;;;;;;;;14.29;87.36;97341.19;4941695;28;104049;-62
2021/11/01 01:54:53;;;;;;;;;;;;;;;14.22;87.59;97353.47;4943241;28;104016;-62
2021/11/01 01:57:22;;;;;;;;;;;;;;;14.21;87.66;97357.13;4940954;28;103224;-62
2021/11/01 01:59:50;;;;;;;;;;;;;;;14.20;87.24;97367.94;4940751;28;102699;-63
2021/11/01 02:02:17;;;;;;;;;;;;;;;14.02;87.08;97365.41;4936018;28;104193;-63
2021/11/01 02:04:46;;;;;;;;;;;;;;;14.06;86.72;97368.56;4940081;28;103995;-63
2021/11/01 02:07:20;;;;;;;;;;;;;;;14.05;86.24;97370.41;4940966;28;103270;-63
2021/11/01 02:09:52;;;;;;;;;;;;;;;14.01;85.64;97366.41;4954679;28;102720;-63
2021/11/01 02:12:24;;;;;;;;;;;;;;;13.89;85.83;97370.38;4940408;28;104042;-63
2021/11/01 02:14:54;;;;;;;;;;;;;;;13.94;85.64;97373.38;4940111;28;104190;-63
2021/11/01 02:17:25;;;;;;;;;;;;;;;13.86;85.53;97373.34;4937966;28;103363;-63
2021/11/01 02:19:57;;;;;;;;;;;;;;;13.82;84.37;97377.31;4941465;28;102758;-63
2021/11/01 02:22:33;;;;;;;;;;;;;;;13.70;84.52;97378.59;4939113;28;102811;-63
2021/11/01 02:25:04;;;;;;;;;;;;;;;13.67;82.81;97376.31;4939365;28;103385;-62
2021/11/01 02:27:36;;;;;;;;;;;;;;;13.55;82.45;97375.75;4939667;28;103219;-63
2021/11/01 02:30:06;;;;;;;;;;;;;;;13.58;81.54;97374.59;4935193;28;102665;-63
2021/11/01 02:32:35;;;;;;;;;;;;;;;13.49;82.11;97375.56;4941644;28;103864;-64
2021/11/01 02:35:06;;;;;;;;;;;;;;;13.46;82.40;97383.84;4939405;28;103774;-63
2021/11/01 02:37:36;;;;;;;;;;;;;;;13.40;82.90;97373.88;4938994;28;103294;-63
2021/11/01 02:40:08;;;;;;;;;;;;;;;13.41;82.93;97381.69;4940247;28;102775;-64
2021/11/01 02:42:37;;;;;;;;;;;;;;;13.29;83.22;97378.47;4940805;28;102686;-62
2021/11/01 02:45:07;;;;;;;;;;;;;;;13.20;84.53;97367.97;4938283;28;103347;-62
2021/11/01 02:47:35;;;;;;;;;;;;;;;13.08;85.71;97354.16;4940439;28;103176;-62
2021/11/01 02:50:05;;;;;;;;;;;;;;;13.13;84.75;97367.81;4940294;28;102706;-62
2021/11/01 02:52:33;;;;;;;;;;;;;;;13.10;85.08;97377.88;4938845;28;103926;-63
2021/11/01 02:55:02;;;;;;;;;;;;;;;13.01;84.83;97379.63;4938330;28;105236;-63
2021/11/01 02:57:30;;;;;;;;;;;;;;;12.82;86.18;97384.31;4938881;28;104122;-63
2021/11/01 02:59:59;;;;;;;;;;;;;;;12.71;86.60;97374.81;4940979;28;102652;-64
2021/11/01 03:02:27;;;;;;;;;;;;;;;12.73;87.02;97372.84;4940399;28;102597;-63
2021/11/01 03:04:55;;;;;;;;;;;;;;;12.80;87.32;97371.22;4940127;28;103946;-63
2021/11/01 03:07:24;;;;;;;;;;;;;;;12.86;86.92;97383.84;4940202;28;103253;-63
2021/11/01 03:09:52;;;;;;;;;;;;;;;12.70;87.42;97386.41;4940025;28;102707;-64
2021/11/01 03:12:24;;;;;;;;;;;;;;;12.72;87.37;97390.53;4941320;28;102923;-63
2021/11/01 03:14:56;;;;;;;;;;;;;;;12.73;87.73;97388.72;4939709;28;104235;-63
2021/11/01 03:17:28;;;;;;;;;;;;;;;12.85;87.61;97405.22;4954733;28;103137;-63
2021/11/01 03:19:59;;;;;;;;;;;;;;;12.55;89.07;97409.13;4939722;28;102855;-63
2021/11/01 03:22:27;;;;;;;;;;;;;;;12.72;88.81;97400.31;4940290;28;104005;-63
2021/11/01 03:25:01;;;;;;;;;;;;;;;12.60;89.35;97401.56;4940236;28;103259;-63
2021/11/01 03:27:33;;;;;;;;;;;;;;;12.63;90.39;97411.84;4939242;28;103289;-64
2021/11/01 03:30:00;;;;;;;;;;;;;;;12.70;89.31;97424.31;4940907;28;102752;-63
2021/11/01 03:32:32;;;;;;;;;;;;;;;12.58;89.39;97435.31;4939567;28;103847;-64
2021/11/01 03:35:02;;;;;;;;;;;;;;;12.53;88.89;97448.19;4941932;28;103240;-63
2021/11/01 03:37:30;;;;;;;;;;;;;;;12.32;90.28;97450.34;4943402;28;103162;-64
2021/11/01 03:39:59;;;;;;;;;;;;;;;12.26;91.65;97443.00;4943543;28;102671;-64
2021/11/01 03:42:27;;;;;;;;;;;;;;;12.17;91.32;97450.84;4942979;28;102747;-64
2021/11/01 03:45:00;;;;;;;;;;;;;;;12.09;91.75;97471.97;4940556;28;103305;-64
2021/11/01 03:47:32;;;;;;;;;;;;;;;11.96;93.14;97468.81;4942529;28;102609;-64
2021/11/01 03:50:04;;;;;;;;;;;;;;;11.93;93.31;97463.00;4944015;28;102653;-64
2021/11/01 03:52:35;;;;;;;;;;;;;;;11.85;92.55;97469.03;4942942;28;102656;-65
2021/11/01 03:55:04;;;;;;;;;;;;;;;11.88;93.24;97467.88;4942306;28;103202;-64
2021/11/01 03:57:32;;;;;;;;;;;;;;;11.99;93.57;97476.47;4943565;28;103231;-64
2021/11/01 04:00:00;;;;;;;;;;;;;;;12.03;94.86;97477.84;4941043;28;102783;-64
2021/11/01 04:02:34;;;;;;;;;;;;;;;12.04;94.23;97490.06;4943906;28;102786;-65
2021/11/01 04:05:05;;;;;;;;;;;;;;;11.94;95.35;97484.03;4942321;28;103708;-64
2021/11/01 04:07:33;;;;;;;;;;;;;;;12.00;96.18;97488.72;4942520;28;103173;-65
2021/11/01 04:10:02;;;;;;;;;;;;;;;12.08;96.63;97504.69;4941330;28;102963;-65
2021/11/01 04:12:30;;;;;;;;;;;;;;;12.05;96.53;97510.28;4956567;28;102739;-65
2021/11/01 04:15:02;;;;;;;;;;;;;;;12.08;96.40;97510.00;4943269;28;104004;-65
2021/11/01 04:17:39;;;;;;;;;;;;;;;11.85;97.84;97511.38;4942876;28;102934;-65
2021/11/01 04:20:24;;;;;;;;;;;;;;;11.74;98.27;97508.91;4940694;28;102693;-66
2021/11/01 04:22:57;;;;;;;;;;;;;;;11.73;99.11;97501.97;4943627;28;102839;-66
2021/11/01 04:25:26;;;;;;;;;;;;;;;11.87;98.80;97500.66;4957082;28;103223;-65
2021/11/01 04:27:55;;;;;;;;;;;;;;;11.97;98.87;97518.13;4943574;28;103149;-66
2021/11/01 04:30:23;;;;;;;;;;;;;;;11.99;99.50;97531.19;4974403;28;102699;-65
2021/11/01 04:32:54;;;;;;;;;;;;;;;11.95;100.00;97537.78;4942733;28;104194;-65
2021/11/01 04:35:26;;;;;;;;;;;;;;;11.93;99.94;97540.56;4942160;28;103342;-65
2021/11/01 04:38:00;;;;;;;;;;;;;;;11.87;100.00;97538.53;4940650;28;103182;-66
2021/11/01 04:40:37;;;;;;;;;;;;;;;11.87;100.00;97546.47;4941808;28;103049;-65
2021/11/01 04:43:36;;;;;;;;;;;;;;;11.74;99.17;97535.38;4942246;28;103801;-65
2021/11/01 04:54:22;;;;;;;;;;;;;;;11.49;100.00;97546.56;4942251;28;102710;-66
2021/11/01 04:56:50;;;;;;;;;;;;;;;11.58;100.00;97556.28;4942010;28;103974;-65
2021/11/01 04:59:21;;;;;;;;;;;;;;;11.58;100.00;97551.00;4941638;28;103184;-65
2021/11/01 05:01:51;;;;;;;;;;;;;;;11.51;100.00;97550.72;4940800;28;102759;-66
2021/11/01 05:04:22;;;;;;;;;;;;;;;11.62;100.00;97557.69;4942520;28;103930;-65
2021/11/01 05:06:53;;;;;;;;;;;;;;;11.60;100.00;97559.63;4941429;28;103290;-66
2021/11/01 05:09:25;;;;;;;;;;;;;;;11.66;100.00;97559.03;4942033;28;102976;-65
2021/11/01 05:12:05;;;;;;;;;;;;;;;11.73;100.00;97549.59;4942640;28;103043;-65
2021/11/01 05:14:38;;;;;;;;;;;;;;;11.55;100.00;97549.47;4940451;28;102712;-65
2021/11/01 05:17:26;;;;;;;;;;;;;;;11.41;100.00;97544.66;4942462;28;104100;-65
2021/11/01 05:20:00;;;;;;;;;;;;;;;11.54;100.00;97560.19;4942629;28;103080;-65
2021/11/01 05:22:37;;;;;;;;;;;;;;;11.63;100.00;97559.34;4942399;28;102639;-65
2021/11/01 05:25:09;;;;;;;;;;;;;;;11.36;100.00;97559.28;4942924;28;102814;-65
2021/11/01 05:27:44;;;;;;;;;;;;;;;11.20;100.00;97553.75;4938791;28;104042;-65
2021/11/01 05:30:15;;;;;;;;;;;;;;;11.17;100.00;97562.78;4941695;28;103222;-65
2021/11/01 05:32:53;;;;;;;;;;;;;;;11.31;100.00;97564.97;4956421;28;102926;-65
2021/11/01 05:35:21;;;;;;;;;;;;;;;11.15;100.00;97569.19;4941085;28;104040;-65
2021/11/01 05:37:51;;;;;;;;;;;;;;;10.97;100.00;97577.00;4972253;28;102782;-65
2021/11/01 05:40:19;;;;;;;;;;;;;;;11.11;100.00;97579.22;4940781;28;103191;-64
2021/11/01 05:42:47;;;;;;;;;;;;;;;11.23;100.00;97571.97;4941407;28;102675;-65
2021/11/01 05:45:15;;;;;;;;;;;;;;;11.04;100.00;97576.31;4939133;28;102770;-65
2021/11/01 05:47:45;;;;;;;;;;;;;;;11.06;100.00;97584.06;4941653;28;103282;-65
2021/11/01 05:50:13;;;;;;;;;;;;;;;11.15;100.00;97585.03;4940591;28;103174;-65
2021/11/01 05:52:43;;;;;;;;;;;;;;;11.25;100.00;97585.88;4937010;28;102747;-65
2021/11/01 05:55:20;;;;;;;;;;;;;;;11.23;100.00;97583.38;4942372;28;104182;-65
2021/11/01 05:58:03;;;;;;;;;;;;;;;11.31;100.00;97577.38;4940102;28;103298;-65
2021/11/01 06:03:18;;;;;;;;;;;;;;;11.18;100.00;97582.97;4941596;28;102718;-64
2021/11/01 06:08:44;;;;;;;;;;;;;;;11.13;100.00;97581.72;4885815;28;103831;-64
2021/11/01 06:13:59;;;;;;;;;;;;;;;11.14;100.00;97583.41;4941739;28;102686;-64
2021/11/01 06:16:34;;;;;;;;;;;;;;;11.21;100.00;97585.31;4941583;28;103667;-65
2021/11/01 06:19:02;;;;;;;;;;;;;;;11.31;100.00;97582.69;4940656;28;104610;-65
2021/11/01 06:21:30;;;;;;;;;;;;;;;11.41;100.00;97580.84;4941828;28;103174;-66
2021/11/01 06:24:09;;;;;;;;;;;;;;;11.34;100.00;97562.06;4956343;28;102680;-66
2021/11/01 06:26:39;;;;;;;;;;;;;;;11.34;100.00;97564.69;4942105;28;103191;-65
2021/11/01 06:29:08;;;;;;;;;;;;;;;11.40;100.00;97560.66;4939654;28;103278;-65
2021/11/01 06:31:43;;;;;;;;;;;;;;;11.46;100.00;97568.84;4940112;28;103155;-65
2021/11/01 06:42:39;;;;;;;;;;;;;;;11.57;100.00;97570.47;4908288;28;103263;-65
2021/11/01 06:45:38;;;;;;;;;;;;;;;11.46;100.00;97570.66;4939403;28;102717;-65
2021/11/01 06:51:10;;;;;;;;;;;;;;;11.57;100.00;97559.91;4933680;28;103243;-65
2021/11/01 07:16:07;;;;;;;;;;;;;;;11.27;98.13;97578.63;4951040;28;104134;-66
2021/11/01 07:18:42;;;;;;;;;;;;;;;11.17;98.38;97577.81;4929744;28;103067;-66
2021/11/01 07:21:38;;;;;;;;;;;;;;;11.13;97.70;97587.00;4937823;28;104356;-66
2021/11/01 08:22:36;;;;;;;;;;;;;;;11.17;96.08;97633.34;4940702;28;103847;-62
2021/11/01 08:25:47;;;;;;;;;;;;;;;11.16;96.45;97629.84;4945739;28;102827;-62
2021/11/01 08:37:00;;;;;;;;;;;;;;;11.20;97.11;97641.81;4944779;28;102649;-64
2021/11/01 08:51:04;;;;;;;;;;;;;;;10.98;100.00;97632.34;4939894;28;103940;-63
2021/11/01 09:02:17;;;;;;;;;;;;;;;10.97;100.00;97625.41;4940768;28;102965;-63
2021/11/01 09:05:09;;;;;;;;;;;;;;;11.05;99.90;97624.72;4957428;28;104490;-63
2021/11/01 09:18:51;;;;;;;;;;;;;;;11.33;98.93;97605.34;4944324;28;103881;-63
2021/11/01 09:21:42;;;;;;;;;;;;;;;11.35;98.62;97592.81;4945588;28;102628;-63
2021/11/01 09:27:02;;;;;;;;;;;;;;;11.24;98.40;97608.00;4974941;28;103780;-63
2021/11/01 09:29:45;;;;;;;;;;;;;;;11.29;97.79;97618.97;4944815;28;103183;-63
2021/11/01 09:41:04;;;;;;;;;;;;;;;11.33;97.08;97642.38;4919582;28;103190;-63
2021/11/01 09:43:34;;;;;;;;;;;;;;;11.43;97.00;97626.47;4942897;28;103075;-63
2021/11/01 09:46:04;;;;;;;;;;;;;;;11.57;97.36;97626.03;4942565;28;102756;-64
2021/11/01 09:48:33;;;;;;;;;;;;;;;11.43;96.41;97627.31;4943094;28;103498;-64
2021/11/01 09:51:01;;;;;;;;;;;;;;;11.53;96.32;97627.31;4944600;28;103190;-63
2021/11/01 09:53:39;;;;;;;;;;;;;;;11.61;95.44;97625.63;4944114;28;102659;-63
2021/11/01 09:56:19;;;;;;;;;;;;;;;11.62;96.10;97621.16;4946443;28;102730;-63
2021/11/01 10:01:34;;;;;;;;;;;;;;;11.64;94.32;97624.50;4941855;28;103239;-63
2021/11/01 10:04:13;;;;;;;;;;;;;;;11.44;94.49;97644.03;4943442;28;102716;-63
2021/11/01 10:06:41;;;;;;;;;;;;;;;11.60;95.10;97634.53;4941551;28;102800;-63
2021/11/01 10:09:12;;;;;;;;;;;;;;;11.44;96.48;97646.66;4955751;28;104325;-63
2021/11/01 10:11:44;;;;;;;;;;;;;;;11.50;96.43;97654.03;4942794;28;103361;-63
2021/11/01 10:14:13;;;;;;;;;;;;;;;11.56;95.70;97653.47;4943428;28;102656;-63
2021/11/01 10:19:30;;;;;;;;;;;;;;;11.42;94.65;97636.25;4942784;28;103377;-63
2021/11/01 10:22:00;;;;;;;;;;;;;;;11.56;94.92;97632.31;4943431;28;103266;-63
2021/11/01 10:24:29;;;;;;;;;;;;;;;11.55;94.60;97630.63;4941012;28;102658;-63
2021/11/01 10:26:58;;;;;;;;;;;;;;;11.61;94.22;97625.63;4941986;28;102634;-63
2021/11/01 10:29:28;;;;;;;;;;;;;;;11.72;93.89;97615.88;4944233;28;103247;-63
2021/11/01 10:31:58;;;;;;;;;;;;;;;11.57;92.41;97607.50;4943134;28;103157;-63
2021/11/01 10:34:29;;;;;;;;;;;;;;;11.58;92.08;97607.38;4959034;28;102927;-63
2021/11/01 10:36:59;;;;;;;;;;;;;;;11.58;91.79;97610.03;4942954;28;103690;-63
2021/11/01 10:39:28;;;;;;;;;;;;;;;11.57;91.93;97612.81;4942422;28;103211;-63
2021/11/01 10:42:06;;;;;;;;;;;;;;;11.46;91.52;97619.09;4944002;28;103234;-63
2021/11/01 10:44:54;;;;;;;;;;;;;;;11.62;92.32;97608.75;4943237;28;102669;-63
2021/11/01 11:12:49;;;;;;;;;;;;;;;11.76;89.49;97594.25;4943225;28;102985;-64
2021/11/01 11:15:17;;;;;;;;;;;;;;;11.72;89.31;97608.78;4941718;28;103158;-63
2021/11/01 11:17:50;;;;;;;;;;;;;;;11.71;89.14;97612.38;4939885;28;102665;-63
2021/11/01 11:26:05;;;;;;;;;;;;;;;11.70;89.20;97559.63;4956423;28;104197;-63
2021/11/01 11:28:54;;;;;;;;;;;;;;;11.71;87.92;97551.53;4941602;28;102599;-63
2021/11/01 11:31:36;;;;;;;;;;;;;;;11.87;87.79;97559.69;4942715;28;104000;-63
2021/11/01 11:48:11;;;;;;;;;;;;;;;11.97;85.37;97557.84;4973423;28;103150;-63
2021/11/01 11:50:40;;;;;;;;;;;;;;;12.14;86.05;97554.41;4941506;28;102728;-63
2021/11/01 11:53:10;;;;;;;;;;;;;;;12.14;87.06;97562.34;4942976;28;102731;-63
2021/11/01 11:55:39;;;;;;;;;;;;;;;12.00;85.73;97570.78;4943687;28;103809;-63
2021/11/01 11:58:08;;;;;;;;;;;;;;;11.88;86.31;97569.28;4937292;28;103972;-63
2021/11/01 12:00:36;;;;;;;;;;;;;;;11.87;86.38;97570.28;4945576;28;102642;-63
2021/11/01 12:03:09;;;;;;;;;;;;;;;12.02;86.71;97571.47;4946108;28;102689;-63
2021/11/01 12:05:38;;;;;;;;;;;;;;;11.92;86.97;97559.25;4960630;28;102712;-62
2021/11/01 12:08:08;;;;;;;;;;;;;;;12.07;86.97;97552.50;4943288;28;103332;-63
2021/11/01 12:19:18;;;;;;;;;;;;;;;12.17;86.81;97543.53;4944923;28;102900;-62
2021/11/01 12:21:48;;;;;;;;;;;;;;;12.18;85.95;97541.72;4945975;28;102631;-62
2021/11/01 12:24:21;;;;;;;;;;;;;;;12.14;86.16;97549.09;4945707;28;102811;-62
2021/11/01 12:26:50;;;;;;;;;;;;;;;12.14;87.45;97538.53;4942923;28;103928;-62
2021/11/01 12:29:19;;;;;;;;;;;;;;;12.15;87.17;97553.41;4946131;28;103089;-62
2021/11/01 12:31:59;;;;;;;;;;;;;;;12.07;86.82;97544.56;4944896;28;102964;-62
2021/11/01 12:34:27;;;;;;;;;;;;;;;12.06;86.76;97541.06;4946214;28;102697;-62
2021/11/01 12:36:58;;;;;;;;;;;;;;;12.02;87.10;97529.09;4944128;28;103383;-62
2021/11/01 12:39:33;;;;;;;;;;;;;;;11.98;87.95;97526.91;4944899;28;102974;-62
2021/11/01 12:58:55;;;;;;;;;;;;;;;12.25;89.97;97495.09;4924151;28;103377;-62
2021/11/01 13:01:24;;;;;;;;;;;;;;;12.30;90.54;97492.00;4925803;28;103192;-62
2021/11/01 13:03:54;;;;;;;;;;;;;;;12.27;90.29;97489.69;4924917;28;103046;-62
2021/11/01 13:06:33;;;;;;;;;;;;;;;12.36;89.71;97484.28;4909742;28;102669;-61
2021/11/01 13:09:09;;;;;;;;;;;;;;;12.15;89.87;97471.34;4924199;28;103267;-61
2021/11/01 13:11:58;;;;;;;;;;;;;;;12.21;89.58;97478.69;4919218;28;103205;-61
2021/11/01 13:20:13;;;;;;;;;;;;;;;12.27;88.74;97477.25;4907139;28;103334;-61
2021/11/01 13:22:45;;;;;;;;;;;;;;;12.32;88.26;97476.81;4913941;28;103130;-61
2021/11/01 13:25:21;;;;;;;;;;;;;;;12.35;89.09;97487.91;4923564;28;102669;-61
2021/11/01 13:27:59;;;;;;;;;;;;;;;12.31;89.50;97488.38;4910502;28;102839;-61
2021/11/01 13:36:25;;;;;;;;;;;;;;;12.46;88.18;97469.16;4924755;28;104213;-62
2021/11/01 13:38:56;;;;;;;;;;;;;;;12.32;89.40;97482.09;4938666;28;104082;-62
2021/11/01 13:41:28;;;;;;;;;;;;;;;12.40;89.16;97477.72;4924409;28;103430;-63
2021/11/01 13:44:06;;;;;;;;;;;;;;;12.40;89.08;97485.66;4908617;28;103158;-63
2021/11/01 13:46:42;;;;;;;;;;;;;;;12.21;89.82;97486.63;4939843;28;102641;-63
2021/11/01 13:49:11;;;;;;;;;;;;;;;12.14;89.65;97474.97;4944443;28;104100;-63
2021/11/01 13:51:39;;;;;;;;;;;;;;;12.07;88.44;97484.50;4942554;28;103199;-63
2021/11/01 13:54:11;;;;;;;;;;;;;;;12.11;87.92;97483.22;4941457;28;102626;-64
2021/11/01 13:56:42;;;;;;;;;;;;;;;12.18;85.86;97486.91;4943087;28;102680;-63
2021/11/01 13:59:24;;;;;;;;;;;;;;;12.24;85.67;97479.38;4941366;28;105571;-63
2021/11/01 14:02:12;;;;;;;;;;;;;;;12.16;86.20;97478.31;4943571;28;104220;-63
2021/11/01 14:13:06;;;;;;;;;;;;;;;12.39;85.36;97462.81;4942421;28;102987;-63
2021/11/01 14:16:02;;;;;;;;;;;;;;;12.38;85.34;97455.03;4942658;28;103202;-63
2021/11/01 14:33:03;;;;;;;;;;;;;;;12.41;83.10;97457.34;4945842;28;102933;-63
2021/11/01 15:12:36;;;;;;;;;;;;;;;12.44;81.79;97422.59;4939491;28;103131;-63
2021/11/01 15:17:53;;;;;;;;;;;;;;;12.63;81.73;97433.06;4950509;28;104011;-64
2021/11/01 15:20:39;;;;;;;;;;;;;;;12.69;81.59;97443.00;4937004;28;104035;-63
2021/11/01 15:23:24;;;;;;;;;;;;;;;12.70;81.96;97440.22;4937585;28;102966;-64
2021/11/01 15:28:58;;;;;;;;;;;;;;;12.64;85.12;97429.41;4937517;28;104326;-64
2021/11/01 16:19:06;;;;;;;;;;;;;;;11.86;86.93;97438.94;4912711;28;103477;-64
2021/11/01 16:21:36;;;;;;;;;;;;;;;11.86;86.92;97438.94;4939599;28;102870;-64
2021/11/01 16:24:06;;;;;;;;;;;;;;;11.87;87.03;97437.97;4939053;28;102731;-63
2021/11/01 16:26:35;;;;;;;;;;;;;;;11.78;86.18;97430.09;4938970;28;103227;-64
2021/11/01 16:29:06;;;;;;;;;;;;;;;11.80;85.71;97434.25;4935584;28;103035;-64
2021/11/01 16:31:47;;;;;;;;;;;;;;;11.84;85.90;97440.91;4936767;28;102806;-63
2021/11/01 16:34:19;;;;;;;;;;;;;;;11.83;85.14;97444.53;4938039;28;102922;-64
2021/11/01 16:39:34;;;;;;;;;;;;;;;11.86;85.13;97448.69;4917914;28;104732;-63
2021/11/01 16:42:03;;;;;;;;;;;;;;;11.81;85.60;97446.50;4916714;28;102918;-64
2021/11/01 16:44:38;;;;;;;;;;;;;;;11.84;85.09;97456.78;4918954;28;103046;-64
2021/11/01 16:47:07;;;;;;;;;;;;;;;11.90;85.31;97461.47;4935259;28;103320;-63
2021/11/01 16:49:35;;;;;;;;;;;;;;;11.92;85.43;97448.94;4936624;28;103334;-64
2021/11/01 16:52:14;;;;;;;;;;;;;;;11.90;85.58;97450.88;4934440;28;102611;-63
2021/11/01 16:54:43;;;;;;;;;;;;;;;11.87;85.23;97456.50;4920499;28;103020;-64
2021/11/01 16:57:31;;;;;;;;;;;;;;;11.85;85.64;97455.78;4941630;28;103723;-64
2021/11/01 17:00:08;;;;;;;;;;;;;;;11.76;86.11;97459.31;4938032;28;103327;-64
2021/11/01 17:02:49;;;;;;;;;;;;;;;11.73;86.04;97459.66;4935323;28;103028;-63
2021/11/01 17:05:26;;;;;;;;;;;;;;;11.68;86.13;97456.56;4928294;28;103105;-64
2021/11/01 17:08:17;;;;;;;;;;;;;;;11.74;86.76;97450.72;4934288;28;103194;-63
2021/11/01 17:11:11;;;;;;;;;;;;;;;11.70;86.68;97449.34;4935764;28;103179;-64
2021/11/01 17:22:10;;;;;;;;;;;;;;;11.72;87.04;97452.69;4926684;28;103255;-63
2021/11/01 17:24:46;;;;;;;;;;;;;;;11.72;87.39;97447.38;4929123;28;103026;-63
2021/11/01 18:40:32;;;;;;;;;;;;;;;10.82;92.08;97441.88;4930945;28;103230;-64
2021/11/01 18:43:16;;;;;;;;;;;;;;;10.52;93.13;97439.41;4929823;28;102692;-64
2021/11/01 18:46:15;;;;;;;;;;;;;;;10.62;92.96;97434.09;4932336;28;103933;-64
2021/11/01 18:51:31;;;;;;;;;;;;;;;10.70;92.18;97423.66;4927408;28;103400;-64
2021/11/01 18:54:09;;;;;;;;;;;;;;;10.70;91.89;97427.13;4931983;28;104380;-64
2021/11/01 18:56:40;;;;;;;;;;;;;;;10.73;92.15;97426.03;4943503;28;102816;-64
2021/11/01 18:59:10;;;;;;;;;;;;;;;10.70;92.15;97426.31;4955825;28;104267;-64
2021/11/01 19:01:39;;;;;;;;;;;;;;;10.72;92.21;97424.38;4955448;28;103160;-64
2021/11/01 19:04:14;;;;;;;;;;;;;;;10.64;92.50;97424.25;4951633;28;102643;-64
2021/11/01 19:06:50;;;;;;;;;;;;;;;10.61;92.34;97421.91;4949906;28;103909;-64
2021/11/01 20:05:10;;;;;;;;;;;;;;;9.68;90.00;97469.88;4957563;28;104178;-63
2021/11/01 20:13:24;;;;;;;;;;;;;;;9.32;91.58;97470.41;4956323;28;102629;-64
2021/11/01 20:16:09;;;;;;;;;;;;;;;9.35;91.51;97466.69;4957248;28;103255;-63
2021/11/01 21:25:49;;;;;;;;;;;;;;;8.09;93.64;97464.16;4945346;28;104037;-63
2021/11/01 21:28:19;;;;;;;;;;;;;;;8.13;93.36;97465.59;4948343;28;102692;-64
2021/11/01 21:30:47;;;;;;;;;;;;;;;8.10;93.15;97466.69;4949078;28;102832;-63
2021/11/01 21:33:17;;;;;;;;;;;;;;;7.97;93.19;97457.28;4960729;28;103175;-63
2021/11/01 21:35:47;;;;;;;;;;;;;;;7.86;93.99;97458.13;4959404;28;103186;-63
2021/11/01 21:38:16;;;;;;;;;;;;;;;7.86;94.73;97457.34;4959922;28;102688;-64
2021/11/01 21:40:44;;;;;;;;;;;;;;;7.89;95.08;97464.94;4951058;28;102765;-64
2021/11/01 21:43:12;;;;;;;;;;;;;;;7.80;94.83;97463.91;4959891;28;104308;-64
2021/11/01 21:45:45;;;;;;;;;;;;;;;7.51;96.41;97453.09;4959672;28;103350;-65
2021/11/01 21:48:13;;;;;;;;;;;;;;;7.44;96.83;97454.53;4960846;28;102757;-65
2021/11/01 21:50:43;;;;;;;;;;;;;;;7.48;97.21;97448.09;4958589;28;102647;-64
2021/11/01 21:53:11;;;;;;;;;;;;;;;7.58;96.78;97454.25;4959744;28;102916;-64
2021/11/01 21:55:39;;;;;;;;;;;;;;;7.59;96.39;97455.09;4961600;28;103225;-65
2021/11/01 21:58:14;;;;;;;;;;;;;;;7.50;95.86;97450.56;4959211;28;102927;-65
2021/11/01 22:01:05;;;;;;;;;;;;;;;7.29;96.65;97445.25;4959496;28;102786;-63
2021/11/01 22:17:33;;;;;;;;;;;;;;;6.88;100.00;97431.84;4962988;28;102927;-64
2021/11/01 22:20:06;;;;;;;;;;;;;;;6.87;100.00;97430.19;4958033;28;102720;-64
2021/11/01 22:25:23;;;;;;;;;;;;;;;7.02;99.96;97420.31;4957496;28;103211;-63
2021/11/01 22:33:54;;;;;;;;;;;;;;;6.98;99.39;97407.41;4897991;28;103280;-63
2021/11/01 22:39:11;;;;;;;;;;;;;;;7.14;99.20;97407.03;4936681;28;103153;-63
2021/11/01 22:55:52;;;;;;;;;;;;;;;7.14;98.12;97407.03;4964272;28;102778;-63
2021/11/01 22:58:23;;;;;;;;;;;;;;;7.28;99.16;97409.41;4958502;28;103336;-63
2021/11/01 23:00:54;;;;;;;;;;;;;;;7.32;99.41;97405.59;4959233;28;103163;-63
2021/11/01 23:03:26;;;;;;;;;;;;;;;7.33;99.54;97396.75;4955622;28;104824;-63
2021/11/01 23:33:48;;;;;;;;;;;;;;;8.16;98.42;97368.03;4958927;28;103024;-63
2021/11/01 23:36:16;;;;;;;;;;;;;;;8.23;98.28;97357.81;4958625;28;102713;-64
2021/11/01 23:38:44;;;;;;;;;;;;;;;8.26;97.86;97361.00;4942647;28;102738;-63
2021/11/01 23:41:13;;;;;;;;;;;;;;;8.28;97.82;97359.13;4959140;28;103970;-63
2021/11/01 23:43:41;;;;;;;;;;;;;;;8.26;97.57;97350.50;4958779;28;103142;-63
2021/11/01 23:46:09;;;;;;;;;;;;;;;8.21;97.55;97355.31;4957318;28;102685;-64